createdAt,value
2019-03-29T00:02:21.293Z,15.08
2019-03-29T00:04:49.654Z,14.70
2019-03-29T00:07:18.144Z,17.57
2019-03-29T00:09:46.506Z,15.43
2019-03-29T00:12:14.812Z,14.43
2019-03-29T00:14:43.758Z,16.80
2019-03-29T00:17:12.072Z,16.37
2019-03-29T00:19:40.362Z,15.35
2019-03-29T00:22:08.677Z,13.95
2019-03-29T00:24:36.962Z,13.95
2019-03-29T00:27:05.345Z,17.05
2019-03-29T00:29:33.641Z,16.05
2019-03-29T00:32:01.949Z,14.53
2019-03-29T00:34:30.317Z,16.45
2019-03-29T00:36:58.704Z,14.03
2019-03-29T00:39:27.566Z,14.38
2019-03-29T00:41:56.147Z,15.15
2019-03-29T00:44:24.509Z,14.83
2019-03-29T00:46:52.864Z,13.72
2019-03-29T00:49:21.197Z,16.12
2019-03-29T00:51:50.365Z,13.43
2019-03-29T00:54:19.905Z,14.53
2019-03-29T00:56:48.197Z,12.65
2019-03-29T00:59:16.513Z,15.05
2019-03-29T01:01:44.877Z,15.18
2019-03-29T01:04:13.268Z,15.32
2019-03-29T01:06:41.552Z,17.00
2019-03-29T01:09:09.864Z,21.85
2019-03-29T01:11:38.225Z,15.32
2019-03-29T01:14:06.544Z,15.58
2019-03-29T01:16:34.900Z,14.78
2019-03-29T01:19:03.340Z,14.78
2019-03-29T01:21:32.271Z,17.50
2019-03-29T01:24:00.590Z,14.33
2019-03-29T01:26:28.957Z,18.75
2019-03-29T01:28:57.264Z,14.53
2019-03-29T01:31:25.564Z,14.47
2019-03-29T01:33:53.946Z,15.75
2019-03-29T01:36:22.308Z,17.55
2019-03-29T01:38:51.188Z,17.95
2019-03-29T01:41:19.543Z,18.55
2019-03-29T01:43:47.858Z,15.93
2019-03-29T01:46:16.160Z,19.35
2019-03-29T01:48:44.539Z,16.77
2019-03-29T01:51:12.920Z,22.37
2019-03-29T01:53:41.300Z,19.20
2019-03-29T01:56:09.660Z,17.05
2019-03-29T01:58:38.043Z,20.08
2019-03-29T02:01:06.328Z,21.00
2019-03-29T02:03:34.645Z,20.68
2019-03-29T02:06:02.933Z,22.02
2019-03-29T02:08:35.852Z,20.90
2019-03-29T02:11:01.252Z,21.07
2019-03-29T02:13:29.549Z,23.20
2019-03-29T02:15:57.933Z,23.83
2019-03-29T02:18:26.228Z,23.77
2019-03-29T02:20:54.622Z,25.20
2019-03-29T02:23:22.907Z,28.57
2019-03-29T02:25:51.220Z,23.62
2019-03-29T02:28:19.503Z,27.52
2019-03-29T02:30:47.812Z,28.52
2019-03-29T02:33:16.112Z,27.42
2019-03-29T02:35:44.501Z,27.25
2019-03-29T02:38:12.858Z,27.35
2019-03-29T02:40:41.248Z,29.32
2019-03-29T02:43:10.840Z,30.97
2019-03-29T02:45:39.613Z,29.25
2019-03-29T02:48:07.968Z,28.62
2019-03-29T02:50:36.864Z,35.13
2019-03-29T02:53:05.552Z,32.08
2019-03-29T02:55:34.119Z,34.05
2019-03-29T02:58:02.476Z,35.10
2019-03-29T03:00:30.785Z,35.95
2019-03-29T03:02:59.078Z,34.38
2019-03-29T03:05:27.470Z,33.00
2019-03-29T03:07:55.829Z,34.25
2019-03-29T03:10:24.217Z,31.02
2019-03-29T03:12:52.577Z,35.23
2019-03-29T03:15:20.900Z,32.60
2019-03-29T03:17:49.256Z,33.25
2019-03-29T03:20:17.725Z,32.13
2019-03-29T03:22:46.096Z,35.30
2019-03-29T03:25:14.469Z,40.45
2019-03-29T03:27:42.834Z,36.08
2019-03-29T03:30:11.797Z,36.53
2019-03-29T03:32:40.247Z,38.08
2019-03-29T03:35:08.978Z,44.67
2019-03-29T03:37:37.341Z,39.85
2019-03-29T03:40:06.760Z,42.45
2019-03-29T03:42:35.053Z,44.00
2019-03-29T03:45:04.820Z,43.33
2019-03-29T03:47:33.168Z,41.20
2019-03-29T03:50:01.915Z,41.90
2019-03-29T03:52:30.449Z,39.60
2019-03-29T03:54:58.838Z,44.93
2019-03-29T03:57:27.213Z,37.45
2019-03-29T03:59:55.576Z,40.80
2019-03-29T04:02:23.869Z,40.58
2019-03-29T04:04:52.162Z,40.67
2019-03-29T04:07:20.484Z,49.85
2019-03-29T04:09:50.558Z,44.77
2019-03-29T04:12:18.889Z,41.70
2019-03-29T04:14:47.411Z,44.53
2019-03-29T04:17:15.732Z,46.92
2019-03-29T04:19:44.036Z,50.38
2019-03-29T04:22:12.433Z,47.20
2019-03-29T04:24:40.785Z,44.90
2019-03-29T04:27:09.174Z,49.20
2019-03-29T04:29:37.563Z,50.10
2019-03-29T04:32:05.948Z,50.43
2019-03-29T04:34:34.330Z,45.80
2019-03-29T04:37:02.728Z,49.38
2019-03-29T04:39:31.088Z,48.87
2019-03-29T04:41:59.473Z,50.38
2019-03-29T04:44:27.771Z,44.73
2019-03-29T04:46:56.168Z,42.35
2019-03-29T04:49:24.542Z,46.98
2019-03-29T04:51:52.945Z,47.75
2019-03-29T04:54:21.308Z,57.23
2019-03-29T04:56:49.692Z,48.90
2019-03-29T04:59:18.057Z,53.55
2019-03-29T05:01:46.449Z,55.12
2019-03-29T05:04:14.809Z,57.23
2019-03-29T05:06:43.122Z,52.45
2019-03-29T05:09:11.494Z,50.67
2019-03-29T05:11:39.873Z,57.65
2019-03-29T05:14:08.237Z,57.25
2019-03-29T05:16:36.643Z,58.33
2019-03-29T05:19:05.023Z,58.73
2019-03-29T05:21:33.409Z,56.05
2019-03-29T05:24:01.709Z,50.10
2019-03-29T05:26:30.109Z,49.98
2019-03-29T05:28:58.475Z,57.08
2019-03-29T05:31:26.865Z,58.65
2019-03-29T05:33:55.160Z,57.17
2019-03-29T05:36:23.548Z,61.42
2019-03-29T05:38:51.841Z,50.28
2019-03-29T05:41:20.242Z,56.85
2019-03-29T05:43:48.606Z,46.95
2019-03-29T05:46:17.000Z,42.08
2019-03-29T05:48:45.370Z,35.10
2019-03-29T05:51:13.756Z,35.23
2019-03-29T05:53:42.048Z,30.92
2019-03-29T05:56:10.365Z,30.55
2019-03-29T05:58:38.746Z,34.98
2019-03-29T06:01:07.142Z,34.23
2019-03-29T06:03:35.510Z,39.08
2019-03-29T06:06:03.899Z,42.30
2019-03-29T06:08:32.266Z,35.55
2019-03-29T06:11:00.582Z,33.67
2019-03-29T06:13:29.018Z,35.48
2019-03-29T06:15:57.328Z,32.45
2019-03-29T06:18:25.697Z,31.93
2019-03-29T06:20:54.013Z,29.92
2019-03-29T06:23:22.309Z,27.42
2019-03-29T06:25:50.683Z,30.43
2019-03-29T06:28:19.073Z,36.00
2019-03-29T06:30:47.436Z,33.83
2019-03-29T06:33:15.831Z,34.90
2019-03-29T06:35:44.560Z,32.35
2019-03-29T06:38:12.953Z,38.90
2019-03-29T06:40:41.322Z,29.37
2019-03-29T06:43:09.728Z,30.25
2019-03-29T06:45:47.898Z,27.90
2019-03-29T06:48:08.141Z,24.32
2019-03-29T06:50:36.547Z,23.47
2019-03-29T06:53:04.917Z,23.35
2019-03-29T06:55:33.223Z,23.15
2019-03-29T06:58:01.621Z,21.97
2019-03-29T07:00:29.932Z,23.90
2019-03-29T07:02:58.394Z,23.35
2019-03-29T07:05:26.760Z,22.42
2019-03-29T07:07:55.077Z,22.00
2019-03-29T07:10:23.452Z,21.60
2019-03-29T07:12:51.780Z,20.02
2019-03-29T07:15:20.087Z,24.32
2019-03-29T07:17:48.479Z,21.65
2019-03-29T07:20:16.864Z,21.97
2019-03-29T07:22:45.271Z,19.62
2019-03-29T07:25:13.646Z,20.17
2019-03-29T07:27:46.743Z,20.25
2019-03-29T07:30:11.992Z,19.73
2019-03-29T07:32:40.317Z,20.00
2019-03-29T07:35:08.685Z,19.77
2019-03-29T07:37:37.087Z,18.87
2019-03-29T07:40:05.456Z,19.48
2019-03-29T07:42:33.846Z,21.17
2019-03-29T07:45:02.144Z,20.27
2019-03-29T07:47:30.538Z,19.90
2019-03-29T07:49:58.834Z,18.42
2019-03-29T07:52:27.244Z,19.55
2019-03-29T07:54:55.620Z,18.10
2019-03-29T07:57:24.004Z,18.50
2019-03-29T07:59:52.305Z,18.45
2019-03-29T08:02:20.622Z,18.42
2019-03-29T08:04:49.000Z,17.45
2019-03-29T08:07:27.260Z,16.73
2019-03-29T08:09:47.423Z,15.38
2019-03-29T08:12:15.852Z,17.27
2019-03-29T08:14:44.188Z,14.87
2019-03-29T08:17:12.580Z,15.88
2019-03-29T08:19:40.946Z,16.02
2019-03-29T08:22:09.267Z,15.65
2019-03-29T08:24:37.637Z,16.90
2019-03-29T08:27:06.605Z,15.50
2019-03-29T08:29:34.905Z,16.90
2019-03-29T08:32:03.220Z,15.45
2019-03-29T08:34:31.610Z,15.85
2019-03-29T08:37:00.003Z,14.18
2019-03-29T08:39:28.644Z,13.05
2019-03-29T08:42:00.448Z,13.72
2019-03-29T08:44:27.092Z,13.05
2019-03-29T08:46:55.388Z,14.73
2019-03-29T08:49:23.717Z,13.38
2019-03-29T08:51:52.093Z,12.10
2019-03-29T08:54:20.498Z,14.63
2019-03-29T08:56:48.863Z,13.45
2019-03-29T08:59:17.742Z,14.23
2019-03-29T09:01:46.260Z,14.05
2019-03-29T09:04:14.655Z,14.98
2019-03-29T09:06:53.360Z,13.60
2019-03-29T09:09:13.066Z,14.35
2019-03-29T09:11:41.509Z,13.00
2019-03-29T09:14:09.829Z,12.65
2019-03-29T09:16:38.210Z,13.40
2019-03-29T09:19:06.600Z,12.00
2019-03-29T09:21:34.969Z,12.15
2019-03-29T09:24:03.285Z,11.73
2019-03-29T09:26:31.574Z,12.05
2019-03-29T09:28:59.901Z,13.50
2019-03-29T09:31:28.203Z,11.97
2019-03-29T09:33:58.548Z,11.00
2019-03-29T09:36:26.604Z,10.30
2019-03-29T09:38:54.993Z,12.18
2019-03-29T09:41:23.357Z,10.20
2019-03-29T09:43:54.296Z,9.75
2019-03-29T09:46:21.789Z,10.28
2019-03-29T09:48:50.162Z,9.75
2019-03-29T09:51:18.513Z,9.60
2019-03-29T09:53:46.900Z,7.80
2019-03-29T09:56:15.265Z,10.30
2019-03-29T09:58:45.173Z,10.05
2019-03-29T10:01:13.778Z,9.70
2019-03-29T10:03:42.141Z,9.55
2019-03-29T10:06:10.513Z,11.22
2019-03-29T10:08:39.689Z,9.03
2019-03-29T10:11:08.060Z,7.97
2019-03-29T10:13:36.447Z,8.43
2019-03-29T10:16:04.818Z,8.48
2019-03-29T10:18:33.212Z,12.20
2019-03-29T10:21:01.587Z,8.60
2019-03-29T10:23:29.972Z,8.60
2019-03-29T10:25:58.698Z,8.70
2019-03-29T10:28:27.370Z,10.78
2019-03-29T10:30:55.737Z,9.83
2019-03-29T10:33:24.140Z,9.63
2019-03-29T10:35:53.151Z,10.30
2019-03-29T10:38:21.588Z,11.50
2019-03-29T10:40:49.993Z,10.32
2019-03-29T10:43:18.338Z,9.43
2019-03-29T10:45:46.707Z,10.05
2019-03-29T10:48:15.092Z,8.05
2019-03-29T10:50:43.385Z,8.83
2019-03-29T10:53:11.749Z,9.85
2019-03-29T10:55:40.141Z,10.75
2019-03-29T10:58:09.858Z,7.75
2019-03-29T11:00:39.314Z,10.70
2019-03-29T11:03:07.749Z,12.93
2019-03-29T11:05:36.141Z,10.28
2019-03-29T11:08:04.699Z,8.60
2019-03-29T11:10:35.385Z,7.70
2019-03-29T11:13:12.662Z,7.67
2019-03-29T11:15:33.945Z,7.22
2019-03-29T11:18:02.378Z,7.22
2019-03-29T11:20:30.787Z,9.35
2019-03-29T11:22:59.144Z,7.17
2019-03-29T11:25:27.452Z,8.85
2019-03-29T11:27:55.746Z,7.92
2019-03-29T11:30:41.230Z,8.45
2019-03-29T11:32:57.160Z,8.75
2019-03-29T11:35:25.474Z,8.70
2019-03-29T11:37:53.846Z,8.68
2019-03-29T11:40:23.473Z,10.03
2019-03-29T11:42:51.810Z,8.65
2019-03-29T11:45:20.197Z,8.78
2019-03-29T11:47:48.485Z,8.68
2019-03-29T11:50:16.791Z,8.73
2019-03-29T11:52:45.084Z,10.90
2019-03-29T11:55:13.483Z,8.78
2019-03-29T11:57:41.836Z,8.78
2019-03-29T12:00:11.986Z,8.53
2019-03-29T12:02:40.340Z,7.78
2019-03-29T12:05:08.652Z,7.85
2019-03-29T12:07:37.030Z,12.10
2019-03-29T12:10:05.939Z,9.48
2019-03-29T12:12:34.305Z,7.97
2019-03-29T12:15:02.709Z,10.30
2019-03-29T12:17:31.072Z,9.50
2019-03-29T12:19:59.471Z,7.37
2019-03-29T12:22:28.089Z,12.40
2019-03-29T12:24:56.484Z,9.38
2019-03-29T12:27:24.862Z,9.70
2019-03-29T12:29:53.240Z,9.90
2019-03-29T12:32:21.538Z,10.45
2019-03-29T12:34:49.870Z,10.32
2019-03-29T12:37:18.233Z,11.03
2019-03-29T12:39:46.555Z,10.88
2019-03-29T12:42:14.914Z,9.25
2019-03-29T12:44:43.303Z,11.70
2019-03-29T12:47:11.605Z,12.58
2019-03-29T12:49:39.900Z,11.88
2019-03-29T12:52:08.209Z,10.90
2019-03-29T12:54:36.586Z,13.62
2019-03-29T12:57:06.845Z,10.40
2019-03-29T12:59:35.040Z,10.15
2019-03-29T13:02:03.385Z,12.35
2019-03-29T13:04:31.749Z,10.28
2019-03-29T13:07:00.073Z,10.35
2019-03-29T13:09:28.364Z,11.28
2019-03-29T13:11:56.684Z,11.22
2019-03-29T13:14:24.988Z,18.80
2019-03-29T13:16:53.374Z,9.70
2019-03-29T13:19:21.744Z,10.03
2019-03-29T13:21:50.125Z,9.75
2019-03-29T13:24:18.579Z,11.88
2019-03-29T13:26:46.965Z,10.18
2019-03-29T13:29:15.364Z,11.30
2019-03-29T13:31:43.756Z,10.08
2019-03-29T13:34:12.123Z,10.38
2019-03-29T13:36:40.524Z,12.15
2019-03-29T13:39:08.893Z,12.05
2019-03-29T13:41:37.213Z,12.60
2019-03-29T13:44:05.522Z,12.53
2019-03-29T13:46:33.989Z,13.18
2019-03-29T13:49:02.284Z,13.50
2019-03-29T13:51:30.678Z,15.38
2019-03-29T13:53:59.054Z,13.08
2019-03-29T13:56:27.684Z,11.85
2019-03-29T13:58:56.069Z,11.12
2019-03-29T14:01:24.448Z,11.75
2019-03-29T14:03:52.821Z,11.78
2019-03-29T14:06:21.218Z,11.93
2019-03-29T14:08:49.585Z,15.00
2019-03-29T14:11:17.914Z,11.85
2019-03-29T14:13:46.353Z,14.20
2019-03-29T14:16:14.683Z,15.35
2019-03-29T14:18:43.050Z,12.82
2019-03-29T14:21:11.376Z,13.88
2019-03-29T14:23:39.673Z,14.05
2019-03-29T14:26:08.058Z,12.78
2019-03-29T14:28:36.362Z,13.58
2019-03-29T14:31:04.758Z,12.20
2019-03-29T14:33:33.124Z,12.65
2019-03-29T14:36:01.520Z,14.20
2019-03-29T14:38:29.825Z,12.35
2019-03-29T14:40:58.216Z,14.05
2019-03-29T14:43:26.508Z,11.95
2019-03-29T14:45:54.837Z,12.18
2019-03-29T14:48:23.196Z,12.07
2019-03-29T14:50:51.517Z,14.45
2019-03-29T14:53:19.893Z,13.35
2019-03-29T14:55:48.197Z,13.75
2019-03-29T14:58:16.595Z,13.75
2019-03-29T15:00:48.365Z,16.77
2019-03-29T15:03:15.169Z,11.22
2019-03-29T15:05:43.549Z,13.62
2019-03-29T15:08:11.946Z,12.05
2019-03-29T15:10:40.242Z,15.20
2019-03-29T15:13:08.638Z,14.58
2019-03-29T15:15:37.006Z,14.98
2019-03-29T15:18:05.329Z,11.80
2019-03-29T15:20:33.626Z,14.03
2019-03-29T15:23:02.022Z,12.55
2019-03-29T15:25:30.320Z,14.45
2019-03-29T15:27:58.713Z,16.82
2019-03-29T15:30:27.022Z,15.20
2019-03-29T15:32:55.421Z,15.40
2019-03-29T15:35:23.804Z,12.53
2019-03-29T15:37:52.138Z,15.03
2019-03-29T15:40:20.509Z,14.25
2019-03-29T15:42:48.913Z,12.33
2019-03-29T15:45:20.734Z,16.77
2019-03-29T15:47:47.263Z,13.80
2019-03-29T15:50:15.630Z,13.58
2019-03-29T15:52:43.948Z,15.45
2019-03-29T15:55:12.322Z,14.43
2019-03-29T15:57:40.722Z,14.28
2019-03-29T16:00:11.833Z,16.45
2019-03-29T16:02:40.153Z,11.97
2019-03-29T16:05:08.538Z,13.58
2019-03-29T16:07:36.936Z,12.47
2019-03-29T16:10:05.498Z,12.53
2019-03-29T16:12:33.894Z,14.55
2019-03-29T16:15:02.198Z,14.50
2019-03-29T16:17:30.592Z,12.28
2019-03-29T16:19:58.970Z,11.75
2019-03-29T16:22:27.361Z,12.63
2019-03-29T16:24:55.725Z,11.90
2019-03-29T16:27:25.227Z,13.93
2019-03-29T16:29:53.884Z,14.40
2019-03-29T16:32:22.345Z,12.18
2019-03-29T16:34:50.931Z,15.85
2019-03-29T16:37:19.324Z,14.20
2019-03-29T16:39:47.629Z,16.25
2019-03-29T16:42:16.014Z,13.55
2019-03-29T16:44:44.372Z,12.98
2019-03-29T16:47:12.769Z,16.87
2019-03-29T16:49:41.061Z,12.90
2019-03-29T16:52:09.433Z,13.25
2019-03-29T16:54:37.770Z,12.43
2019-03-29T16:57:06.137Z,14.40
2019-03-29T16:59:34.456Z,13.22
2019-03-29T17:02:02.825Z,14.25
2019-03-29T17:04:31.229Z,13.98
2019-03-29T17:06:59.597Z,15.45
2019-03-29T17:09:27.919Z,13.70
2019-03-29T17:11:56.287Z,11.70
2019-03-29T17:14:24.682Z,16.00
2019-03-29T17:16:53.180Z,14.85
2019-03-29T17:19:21.558Z,15.55
2019-03-29T17:21:49.922Z,16.20
2019-03-29T17:24:18.240Z,13.85
2019-03-29T17:26:46.546Z,14.65
2019-03-29T17:29:14.938Z,14.25
2019-03-29T17:31:43.230Z,14.33
2019-03-29T17:34:11.622Z,15.05
2019-03-29T17:36:39.942Z,17.30
2019-03-29T17:39:08.262Z,18.25
2019-03-29T17:41:36.647Z,20.30
2019-03-29T17:44:05.045Z,18.80
2019-03-29T17:46:33.412Z,18.48
2019-03-29T17:49:01.733Z,28.60
2019-03-29T17:51:30.097Z,36.90
2019-03-29T17:53:58.414Z,18.77
2019-03-29T17:56:26.789Z,18.70
2019-03-29T17:58:55.122Z,21.55
2019-03-29T18:01:23.489Z,30.80
2019-03-29T18:03:51.813Z,35.17
2019-03-29T18:06:20.186Z,17.30
2019-03-29T18:08:48.588Z,18.62
2019-03-29T18:11:16.961Z,19.30
2019-03-29T18:13:45.359Z,19.25
2019-03-29T18:16:13.746Z,26.23
2019-03-29T18:18:42.794Z,23.15
2019-03-29T18:21:11.174Z,21.68
2019-03-29T18:23:39.478Z,20.10
2019-03-29T18:26:07.876Z,23.25
2019-03-29T18:28:37.997Z,26.90
2019-03-29T18:31:06.209Z,24.50
2019-03-29T18:33:34.578Z,22.02
2019-03-29T18:36:02.892Z,20.30
2019-03-29T18:38:31.190Z,22.52
2019-03-29T18:40:59.594Z,25.12
2019-03-29T18:43:27.987Z,25.45
2019-03-29T18:45:56.372Z,24.52
2019-03-29T18:48:24.669Z,22.65
2019-03-29T18:50:53.001Z,30.85
2019-03-29T18:53:21.380Z,30.97
2019-03-29T18:55:49.694Z,27.37
2019-03-29T18:58:17.991Z,31.65
2019-03-29T19:00:46.376Z,30.40
2019-03-29T19:03:14.748Z,29.10
2019-03-29T19:05:43.131Z,28.25
2019-03-29T19:08:11.497Z,28.95
2019-03-29T19:10:39.817Z,31.50
2019-03-29T19:13:08.118Z,24.60
2019-03-29T19:15:36.509Z,41.25
2019-03-29T19:18:05.067Z,65.30
2019-03-29T19:20:33.421Z,30.80
2019-03-29T19:23:01.716Z,29.77
2019-03-29T19:25:30.112Z,24.32
2019-03-29T19:27:58.487Z,26.30
2019-03-29T19:30:26.875Z,26.80
2019-03-29T19:32:55.255Z,29.25
2019-03-29T19:35:23.635Z,24.63
2019-03-29T19:37:52.001Z,27.52
2019-03-29T19:40:20.399Z,22.37
2019-03-29T19:42:48.770Z,22.27
2019-03-29T19:45:17.163Z,23.90
2019-03-29T19:47:45.524Z,28.17
2019-03-29T19:50:14.616Z,22.75
2019-03-29T19:52:42.992Z,26.05
2019-03-29T19:55:11.353Z,22.52
2019-03-29T19:57:39.688Z,24.65
2019-03-29T20:00:11.011Z,26.57
2019-03-29T20:02:39.351Z,22.90
2019-03-29T20:05:13.786Z,21.48
2019-03-29T20:07:42.174Z,23.02
2019-03-29T20:10:10.559Z,24.95
2019-03-29T20:12:38.934Z,30.00
2019-03-29T20:15:07.249Z,23.90
2019-03-29T20:17:35.541Z,30.60
2019-03-29T20:20:05.678Z,26.35
2019-03-29T20:22:34.041Z,28.10
2019-03-29T20:25:02.352Z,25.10
2019-03-29T20:27:30.720Z,24.82
2019-03-29T20:29:59.111Z,26.42
2019-03-29T20:32:27.482Z,26.15
2019-03-29T20:34:55.873Z,24.23
2019-03-29T20:37:24.242Z,22.52
2019-03-29T20:39:52.640Z,23.62
2019-03-29T20:42:21.000Z,23.80
2019-03-29T20:44:49.378Z,26.05
2019-03-29T20:47:17.786Z,28.98
2019-03-29T20:49:46.196Z,27.50
2019-03-29T20:52:14.580Z,23.90
2019-03-29T20:54:42.882Z,24.30
2019-03-29T20:57:11.290Z,24.52
2019-03-29T20:59:39.653Z,29.63
2019-03-29T21:02:08.215Z,23.27
2019-03-29T21:04:36.590Z,26.80
2019-03-29T21:07:04.984Z,26.25
2019-03-29T21:09:33.354Z,28.02
2019-03-29T21:12:01.754Z,26.65
2019-03-29T21:14:30.117Z,28.10
2019-03-29T21:16:58.508Z,26.80
2019-03-29T21:19:26.969Z,29.55
2019-03-29T21:21:55.389Z,29.55
2019-03-29T21:24:23.756Z,35.52
2019-03-29T21:26:52.080Z,36.58
2019-03-29T21:29:20.465Z,35.20
2019-03-29T21:31:48.859Z,42.70
2019-03-29T21:34:17.258Z,38.05
2019-03-29T21:36:45.670Z,44.35
2019-03-29T21:39:14.207Z,37.70
2019-03-29T21:41:42.614Z,39.83
2019-03-29T21:44:11.011Z,43.42
2019-03-29T21:46:39.384Z,44.83
2019-03-29T21:49:07.829Z,44.53
2019-03-29T21:51:36.154Z,51.45
2019-03-29T21:54:04.450Z,51.37
2019-03-29T21:56:32.777Z,42.20
2019-03-29T21:59:01.157Z,37.20
2019-03-29T22:01:29.596Z,38.10
2019-03-29T22:03:57.996Z,38.65
2019-03-29T22:06:26.385Z,37.17
2019-03-29T22:08:54.677Z,30.40
2019-03-29T22:11:23.077Z,31.52
2019-03-29T22:13:51.608Z,33.25
2019-03-29T22:16:19.964Z,31.15
2019-03-29T22:18:48.333Z,28.15
2019-03-29T22:21:16.628Z,29.27
2019-03-29T22:23:45.032Z,29.25
2019-03-29T22:26:13.417Z,29.98
2019-03-29T22:28:41.742Z,27.15
2019-03-29T22:31:10.130Z,30.10
2019-03-29T22:33:38.529Z,26.55
2019-03-29T22:36:06.904Z,26.15
2019-03-29T22:38:35.221Z,30.17
2019-03-29T22:41:03.504Z,27.93
2019-03-29T22:43:31.830Z,26.97
2019-03-29T22:46:00.196Z,27.13
2019-03-29T22:48:28.597Z,27.90
2019-03-29T22:50:56.893Z,28.02
2019-03-29T22:53:25.328Z,28.30
2019-03-29T22:55:53.658Z,28.92
2019-03-29T22:58:22.045Z,30.23
2019-03-29T23:00:52.524Z,30.35
2019-03-29T23:03:20.914Z,30.90
2019-03-29T23:05:49.272Z,29.95
2019-03-29T23:08:17.598Z,30.10
2019-03-29T23:10:45.968Z,29.67
2019-03-29T23:13:14.294Z,30.17
2019-03-29T23:15:42.660Z,31.52
2019-03-29T23:18:10.999Z,30.37
2019-03-29T23:20:39.379Z,37.17
2019-03-29T23:23:07.765Z,36.60
2019-03-29T23:25:36.217Z,37.17
2019-03-29T23:28:04.606Z,38.83
2019-03-29T23:30:32.902Z,42.65
2019-03-29T23:33:01.296Z,42.05
2019-03-29T23:35:29.662Z,36.25
2019-03-29T23:37:58.067Z,36.40
2019-03-29T23:40:26.355Z,35.23
2019-03-29T23:42:54.676Z,36.77
2019-03-29T23:45:22.968Z,33.90
2019-03-29T23:47:51.366Z,34.18
2019-03-29T23:50:19.742Z,33.53
2019-03-29T23:52:48.129Z,31.07
2019-03-29T23:55:16.520Z,31.10
2019-03-29T23:57:44.834Z,32.78
